sensor_id;sensor_type;location;lat;lon;timestamp;temperature;humidity
68867;SHT30;56451;44.804;20.476;2023-03-02T00:07:10;9.63;64.29
68867;SHT30;56451;44.804;20.476;2023-03-02T00:09:39;9.66;64.17
68867;SHT30;56451;44.804;20.476;2023-03-02T00:12:06;9.66;63.98
68867;SHT30;56451;44.804;20.476;2023-03-02T00:14:32;9.66;64.02
68867;SHT30;56451;44.804;20.476;2023-03-02T00:16:59;9.66;64.12
68867;SHT30;56451;44.804;20.476;2023-03-02T00:19:25;9.63;63.98
68867;SHT30;56451;44.804;20.476;2023-03-02T00:21:51;9.65;63.92
68867;SHT30;56451;44.804;20.476;2023-03-02T00:24:17;9.65;63.91
68867;SHT30;56451;44.804;20.476;2023-03-02T00:26:45;9.67;63.94
68867;SHT30;56451;44.804;20.476;2023-03-02T00:29:16;9.62;63.95
68867;SHT30;56451;44.804;20.476;2023-03-02T00:31:44;9.59;64.03
68867;SHT30;56451;44.804;20.476;2023-03-02T00:34:11;9.58;64.16
68867;SHT30;56451;44.804;20.476;2023-03-02T00:36:38;9.55;64.32
68867;SHT30;56451;44.804;20.476;2023-03-02T00:39:13;9.55;64.34
68867;SHT30;56451;44.804;20.476;2023-03-02T00:41:40;9.56;64.31
68867;SHT30;56451;44.804;20.476;2023-03-02T00:44:09;9.59;64.33
68867;SHT30;56451;44.804;20.476;2023-03-02T00:46:45;9.59;64.31
68867;SHT30;56451;44.804;20.476;2023-03-02T00:49:16;9.62;64.16
68867;SHT30;56451;44.804;20.476;2023-03-02T00:51:45;9.60;64.19
68867;SHT30;56451;44.804;20.476;2023-03-02T00:54:19;9.63;64.20
68867;SHT30;56451;44.804;20.476;2023-03-02T00:56:49;9.60;64.22
68867;SHT30;56451;44.804;20.476;2023-03-02T00:59:22;9.63;64.12
68867;SHT30;56451;44.804;20.476;2023-03-02T01:02:10;9.65;64.08
68867;SHT30;56451;44.804;20.476;2023-03-02T01:04:41;9.58;64.06
68867;SHT30;56451;44.804;20.476;2023-03-02T01:07:15;9.55;64.23
68867;SHT30;56451;44.804;20.476;2023-03-02T01:09:43;9.55;64.13
68867;SHT30;56451;44.804;20.476;2023-03-02T01:12:11;9.53;64.20
68867;SHT30;56451;44.804;20.476;2023-03-02T01:14:41;9.56;64.19
68867;SHT30;56451;44.804;20.476;2023-03-02T01:17:09;9.56;64.22
68867;SHT30;56451;44.804;20.476;2023-03-02T01:19:37;9.59;64.12
68867;SHT30;56451;44.804;20.476;2023-03-02T01:22:05;9.58;63.99
68867;SHT30;56451;44.804;20.476;2023-03-02T01:24:33;9.53;64.20
68867;SHT30;56451;44.804;20.476;2023-03-02T01:27:00;9.59;64.16
68867;SHT30;56451;44.804;20.476;2023-03-02T01:29:27;9.60;64.02
68867;SHT30;56451;44.804;20.476;2023-03-02T01:31:53;9.62;64.01
68867;SHT30;56451;44.804;20.476;2023-03-02T01:34:25;9.65;63.95
68867;SHT30;56451;44.804;20.476;2023-03-02T01:36:52;9.63;64.00
68867;SHT30;56451;44.804;20.476;2023-03-02T01:39:20;9.65;64.12
68867;SHT30;56451;44.804;20.476;2023-03-02T01:41:50;9.65;64.07
68867;SHT30;56451;44.804;20.476;2023-03-02T01:49:49;9.62;64.17
68867;SHT30;56451;44.804;20.476;2023-03-02T01:52:17;9.55;64.38
68867;SHT30;56451;44.804;20.476;2023-03-02T01:54:47;9.56;64.46
68867;SHT30;56451;44.804;20.476;2023-03-02T01:57:26;9.53;64.47
68867;SHT30;56451;44.804;20.476;2023-03-02T01:59:59;9.46;64.68
68867;SHT30;56451;44.804;20.476;2023-03-02T02:02:38;9.45;64.60
68867;SHT30;56451;44.804;20.476;2023-03-02T02:05:14;9.43;64.71
68867;SHT30;56451;44.804;20.476;2023-03-02T02:07:42;9.42;64.77
68867;SHT30;56451;44.804;20.476;2023-03-02T02:10:10;9.45;64.63
68867;SHT30;56451;44.804;20.476;2023-03-02T02:12:37;9.45;64.47
68867;SHT30;56451;44.804;20.476;2023-03-02T02:15:09;9.50;64.40
68867;SHT30;56451;44.804;20.476;2023-03-02T02:17:44;9.53;64.39
68867;SHT30;56451;44.804;20.476;2023-03-02T02:20:34;9.52;64.39
68867;SHT30;56451;44.804;20.476;2023-03-02T02:23:23;9.46;64.42
68867;SHT30;56451;44.804;20.476;2023-03-02T02:26:00;9.39;64.63
68867;SHT30;56451;44.804;20.476;2023-03-02T02:28:32;9.36;64.84
68867;SHT30;56451;44.804;20.476;2023-03-02T02:31:43;9.35;64.90
68867;SHT30;56451;44.804;20.476;2023-03-02T02:34:17;9.39;64.87
68867;SHT30;56451;44.804;20.476;2023-03-02T02:36:54;9.43;64.71
68867;SHT30;56451;44.804;20.476;2023-03-02T02:39:28;9.49;64.51
68867;SHT30;56451;44.804;20.476;2023-03-02T02:42:06;9.42;64.68
68867;SHT30;56451;44.804;20.476;2023-03-02T02:44:38;9.39;64.73
68867;SHT30;56451;44.804;20.476;2023-03-02T02:47:16;9.38;64.79
68867;SHT30;56451;44.804;20.476;2023-03-02T02:49:47;9.40;64.78
68867;SHT30;56451;44.804;20.476;2023-03-02T02:52:20;9.42;64.65
68867;SHT30;56451;44.804;20.476;2023-03-02T02:54:53;9.38;64.76
68867;SHT30;56451;44.804;20.476;2023-03-02T02:57:27;9.40;64.74
68867;SHT30;56451;44.804;20.476;2023-03-02T02:59:59;9.38;64.76
68867;SHT30;56451;44.804;20.476;2023-03-02T03:02:36;9.36;64.81
68867;SHT30;56451;44.804;20.476;2023-03-02T03:05:13;9.38;64.85
68867;SHT30;56451;44.804;20.476;2023-03-02T03:07:42;9.45;64.72
68867;SHT30;56451;44.804;20.476;2023-03-02T03:10:32;9.50;64.50
68867;SHT30;56451;44.804;20.476;2023-03-02T03:13:13;9.49;64.39
68867;SHT30;56451;44.804;20.476;2023-03-02T03:15:42;9.48;64.41
68867;SHT30;56451;44.804;20.476;2023-03-02T03:18:12;9.55;64.22
68867;SHT30;56451;44.804;20.476;2023-03-02T03:20:42;9.59;63.96
68867;SHT30;56451;44.804;20.476;2023-03-02T03:23:14;9.58;63.93
68867;SHT30;56451;44.804;20.476;2023-03-02T03:25:43;9.55;64.00
68867;SHT30;56451;44.804;20.476;2023-03-02T03:28:13;9.52;64.08
68867;SHT30;56451;44.804;20.476;2023-03-02T03:30:44;9.55;64.10
68867;SHT30;56451;44.804;20.476;2023-03-02T03:33:15;9.60;63.99
68867;SHT30;56451;44.804;20.476;2023-03-02T03:35:47;9.62;63.97
68867;SHT30;56451;44.804;20.476;2023-03-02T03:38:17;9.60;63.87
68867;SHT30;56451;44.804;20.476;2023-03-02T03:40:50;9.55;64.05
68867;SHT30;56451;44.804;20.476;2023-03-02T03:43:23;9.58;64.06
68867;SHT30;56451;44.804;20.476;2023-03-02T03:45:56;9.58;64.07
68867;SHT30;56451;44.804;20.476;2023-03-02T03:48:25;9.58;64.09
68867;SHT30;56451;44.804;20.476;2023-03-02T03:50:56;9.58;64.00
68867;SHT30;56451;44.804;20.476;2023-03-02T03:53:25;9.60;63.97
68867;SHT30;56451;44.804;20.476;2023-03-02T03:55:55;9.65;63.93
68867;SHT30;56451;44.804;20.476;2023-03-02T03:58:23;9.55;64.06
68867;SHT30;56451;44.804;20.476;2023-03-02T04:00:57;9.56;64.09
68867;SHT30;56451;44.804;20.476;2023-03-02T04:03:26;9.62;64.05
68867;SHT30;56451;44.804;20.476;2023-03-02T04:06:00;9.58;64.12
68867;SHT30;56451;44.804;20.476;2023-03-02T04:08:32;9.60;63.97
68867;SHT30;56451;44.804;20.476;2023-03-02T04:11:01;9.58;64.14
68867;SHT30;56451;44.804;20.476;2023-03-02T04:13:30;9.53;64.22
68867;SHT30;56451;44.804;20.476;2023-03-02T04:15:57;9.60;64.02
68867;SHT30;56451;44.804;20.476;2023-03-02T04:18:26;9.60;63.98
68867;SHT30;56451;44.804;20.476;2023-03-02T04:21:02;9.56;64.14
68867;SHT30;56451;44.804;20.476;2023-03-02T04:23:30;9.56;64.12
68867;SHT30;56451;44.804;20.476;2023-03-02T04:25:59;9.58;64.12
68867;SHT30;56451;44.804;20.476;2023-03-02T04:28:35;9.56;64.32
68867;SHT30;56451;44.804;20.476;2023-03-02T04:31:04;9.59;64.32
68867;SHT30;56451;44.804;20.476;2023-03-02T04:33:32;9.59;64.45
68867;SHT30;56451;44.804;20.476;2023-03-02T04:36:11;9.62;64.37
68867;SHT30;56451;44.804;20.476;2023-03-02T04:38:41;9.56;64.39
68867;SHT30;56451;44.804;20.476;2023-03-02T04:41:09;9.55;64.56
68867;SHT30;56451;44.804;20.476;2023-03-02T04:43:40;9.50;64.55
68867;SHT30;56451;44.804;20.476;2023-03-02T04:46:06;9.45;64.68
68867;SHT30;56451;44.804;20.476;2023-03-02T04:48:34;9.45;64.68
68867;SHT30;56451;44.804;20.476;2023-03-02T04:51:04;9.45;64.68
68867;SHT30;56451;44.804;20.476;2023-03-02T04:53:32;9.38;64.81
68867;SHT30;56451;44.804;20.476;2023-03-02T04:56:02;9.34;64.92
68867;SHT30;56451;44.804;20.476;2023-03-02T04:58:34;9.31;64.94
68867;SHT30;56451;44.804;20.476;2023-03-02T05:01:05;9.31;65.10
68867;SHT30;56451;44.804;20.476;2023-03-02T05:03:35;9.34;64.94
68867;SHT30;56451;44.804;20.476;2023-03-02T05:06:07;9.31;65.08
68867;SHT30;56451;44.804;20.476;2023-03-02T05:08:33;9.35;65.06
68867;SHT30;56451;44.804;20.476;2023-03-02T05:11:01;9.40;64.80
68867;SHT30;56451;44.804;20.476;2023-03-02T05:13:28;9.39;64.73
68867;SHT30;56451;44.804;20.476;2023-03-02T05:15:55;9.36;64.80
68867;SHT30;56451;44.804;20.476;2023-03-02T05:18:25;9.35;64.88
68867;SHT30;56451;44.804;20.476;2023-03-02T05:20:52;9.39;64.72
68867;SHT30;56451;44.804;20.476;2023-03-02T05:23:20;9.39;64.78
68867;SHT30;56451;44.804;20.476;2023-03-02T05:25:51;9.43;64.56
68867;SHT30;56451;44.804;20.476;2023-03-02T05:28:19;9.43;64.52
68867;SHT30;56451;44.804;20.476;2023-03-02T05:30:47;9.39;64.73
68867;SHT30;56451;44.804;20.476;2023-03-02T05:33:15;9.40;64.78
68867;SHT30;56451;44.804;20.476;2023-03-02T05:35:47;9.46;64.73
68867;SHT30;56451;44.804;20.476;2023-03-02T05:38:23;9.49;64.60
68867;SHT30;56451;44.804;20.476;2023-03-02T05:40:52;9.58;64.44
68867;SHT30;56451;44.804;20.476;2023-03-02T05:43:20;9.60;64.34
68867;SHT30;56451;44.804;20.476;2023-03-02T05:45:48;9.63;64.27
68867;SHT30;56451;44.804;20.476;2023-03-02T05:48:15;9.67;64.14
68867;SHT30;56451;44.804;20.476;2023-03-02T05:50:44;9.73;64.05
68867;SHT30;56451;44.804;20.476;2023-03-02T05:53:20;9.79;63.82
68867;SHT30;56451;44.804;20.476;2023-03-02T05:55:48;9.80;63.93
68867;SHT30;56451;44.804;20.476;2023-03-02T05:58:17;9.85;63.84
68867;SHT30;56451;44.804;20.476;2023-03-02T06:00:51;9.89;63.80
68867;SHT30;56451;44.804;20.476;2023-03-02T06:03:19;9.90;63.62
68867;SHT30;56451;44.804;20.476;2023-03-02T06:05:49;9.93;63.56
68867;SHT30;56451;44.804;20.476;2023-03-02T06:08:18;9.93;63.53
68867;SHT30;56451;44.804;20.476;2023-03-02T06:10:46;9.96;63.33
68867;SHT30;56451;44.804;20.476;2023-03-02T06:13:15;9.93;63.46
68867;SHT30;56451;44.804;20.476;2023-03-02T06:15:41;9.90;63.58
68867;SHT30;56451;44.804;20.476;2023-03-02T06:18:07;9.93;63.46
68867;SHT30;56451;44.804;20.476;2023-03-02T06:20:34;9.96;63.43
68867;SHT30;56451;44.804;20.476;2023-03-02T06:23:00;9.97;63.47
68867;SHT30;56451;44.804;20.476;2023-03-02T06:25:26;9.98;63.38
68867;SHT30;56451;44.804;20.476;2023-03-02T06:27:53;10.00;63.45
68867;SHT30;56451;44.804;20.476;2023-03-02T06:30:24;10.00;63.45
68867;SHT30;56451;44.804;20.476;2023-03-02T06:32:50;9.97;63.42
68867;SHT30;56451;44.804;20.476;2023-03-02T06:35:17;9.96;63.38
68867;SHT30;56451;44.804;20.476;2023-03-02T06:37:49;9.89;63.56
68867;SHT30;56451;44.804;20.476;2023-03-02T06:40:20;9.85;63.84
68867;SHT30;56451;44.804;20.476;2023-03-02T06:42:49;9.83;63.92
68867;SHT30;56451;44.804;20.476;2023-03-02T06:45:20;9.87;63.96
68867;SHT30;56451;44.804;20.476;2023-03-02T06:47:48;9.94;63.78
68867;SHT30;56451;44.804;20.476;2023-03-02T06:50:17;9.90;63.78
68867;SHT30;56451;44.804;20.476;2023-03-02T06:52:47;9.91;63.87
68867;SHT30;56451;44.804;20.476;2023-03-02T06:55:17;9.86;64.00
68867;SHT30;56451;44.804;20.476;2023-03-02T06:57:45;9.90;64.03
68867;SHT30;56451;44.804;20.476;2023-03-02T07:00:13;9.91;64.30
68867;SHT30;56451;44.804;20.476;2023-03-02T07:02:57;9.87;64.55
68867;SHT30;56451;44.804;20.476;2023-03-02T07:05:25;9.93;64.56
68867;SHT30;56451;44.804;20.476;2023-03-02T07:08:02;9.91;64.89
68867;SHT30;56451;44.804;20.476;2023-03-02T07:10:29;9.83;64.91
68867;SHT30;56451;44.804;20.476;2023-03-02T07:13:01;9.85;65.12
68867;SHT30;56451;44.804;20.476;2023-03-02T07:15:28;9.90;64.95
68867;SHT30;56451;44.804;20.476;2023-03-02T07:17:55;9.96;65.03
68867;SHT30;56451;44.804;20.476;2023-03-02T07:20:23;9.97;65.06
68867;SHT30;56451;44.804;20.476;2023-03-02T07:22:53;9.96;65.21
68867;SHT30;56451;44.804;20.476;2023-03-02T07:25:24;10.00;65.07
68867;SHT30;56451;44.804;20.476;2023-03-02T07:27:51;10.01;65.02
68867;SHT30;56451;44.804;20.476;2023-03-02T07:30:18;10.04;64.98
68867;SHT30;56451;44.804;20.476;2023-03-02T07:32:47;10.08;64.95
68867;SHT30;56451;44.804;20.476;2023-03-02T07:35:14;10.11;65.03
68867;SHT30;56451;44.804;20.476;2023-03-02T07:37:43;10.13;64.96
68867;SHT30;56451;44.804;20.476;2023-03-02T07:40:11;10.08;64.92
68867;SHT30;56451;44.804;20.476;2023-03-02T07:42:38;10.11;65.03
68867;SHT30;56451;44.804;20.476;2023-03-02T07:45:06;10.11;64.96
68867;SHT30;56451;44.804;20.476;2023-03-02T07:47:32;10.06;65.01
68867;SHT30;56451;44.804;20.476;2023-03-02T07:49:59;10.10;65.03
68867;SHT30;56451;44.804;20.476;2023-03-02T07:52:28;10.11;64.99
68867;SHT30;56451;44.804;20.476;2023-03-02T07:54:56;10.08;65.01
68867;SHT30;56451;44.804;20.476;2023-03-02T07:57:23;10.13;65.03
68867;SHT30;56451;44.804;20.476;2023-03-02T07:59:50;10.16;64.89
68867;SHT30;56451;44.804;20.476;2023-03-02T08:02:21;10.16;64.91
68867;SHT30;56451;44.804;20.476;2023-03-02T08:04:54;10.17;64.94
68867;SHT30;56451;44.804;20.476;2023-03-02T08:07:21;10.13;65.21
68867;SHT30;56451;44.804;20.476;2023-03-02T08:09:48;10.11;65.53
68867;SHT30;56451;44.804;20.476;2023-03-02T08:12:14;10.08;65.61
68867;SHT30;56451;44.804;20.476;2023-03-02T08:14:40;10.10;65.74
68867;SHT30;56451;44.804;20.476;2023-03-02T08:17:06;10.07;65.76
68867;SHT30;56451;44.804;20.476;2023-03-02T08:19:33;10.16;65.93
68867;SHT30;56451;44.804;20.476;2023-03-02T08:22:00;10.13;66.14
68867;SHT30;56451;44.804;20.476;2023-03-02T08:24:29;10.16;66.31
68867;SHT30;56451;44.804;20.476;2023-03-02T08:27:01;10.18;66.50
68867;SHT30;56451;44.804;20.476;2023-03-02T08:29:35;10.20;66.83
68867;SHT30;56451;44.804;20.476;2023-03-02T08:32:07;10.22;66.82
68867;SHT30;56451;44.804;20.476;2023-03-02T08:34:38;10.20;66.98
68867;SHT30;56451;44.804;20.476;2023-03-02T08:37:06;10.14;67.22
68867;SHT30;56451;44.804;20.476;2023-03-02T08:39:33;10.06;67.51
68867;SHT30;56451;44.804;20.476;2023-03-02T08:42:06;10.01;67.79
68867;SHT30;56451;44.804;20.476;2023-03-02T08:44:34;9.97;68.14
68867;SHT30;56451;44.804;20.476;2023-03-02T08:47:04;9.97;68.32
68867;SHT30;56451;44.804;20.476;2023-03-02T08:49:35;9.98;68.40
68867;SHT30;56451;44.804;20.476;2023-03-02T08:52:07;9.98;68.75
68867;SHT30;56451;44.804;20.476;2023-03-02T08:54:35;10.00;68.59
68867;SHT30;56451;44.804;20.476;2023-03-02T08:57:10;10.01;68.52
68867;SHT30;56451;44.804;20.476;2023-03-02T08:59:38;10.04;68.34
68867;SHT30;56451;44.804;20.476;2023-03-02T09:02:09;10.06;68.26
68867;SHT30;56451;44.804;20.476;2023-03-02T09:04:42;9.96;68.70
68867;SHT30;56451;44.804;20.476;2023-03-02T09:07:14;9.90;68.79
68867;SHT30;56451;44.804;20.476;2023-03-02T09:09:46;9.85;69.08
68867;SHT30;56451;44.804;20.476;2023-03-02T09:12:15;9.86;69.03
68867;SHT30;56451;44.804;20.476;2023-03-02T09:14:47;9.79;69.18
68867;SHT30;56451;44.804;20.476;2023-03-02T09:17:19;9.76;69.49
68867;SHT30;56451;44.804;20.476;2023-03-02T09:19:52;9.77;69.84
68867;SHT30;56451;44.804;20.476;2023-03-02T09:22:22;9.77;70.12
68867;SHT30;56451;44.804;20.476;2023-03-02T09:24:54;9.83;70.38
68867;SHT30;56451;44.804;20.476;2023-03-02T09:27:24;9.90;69.99
68867;SHT30;56451;44.804;20.476;2023-03-02T09:29:55;9.96;69.54
68867;SHT30;56451;44.804;20.476;2023-03-02T09:32:23;10.00;69.46
68867;SHT30;56451;44.804;20.476;2023-03-02T09:34:53;10.03;69.38
68867;SHT30;56451;44.804;20.476;2023-03-02T09:37:23;10.08;69.39
68867;SHT30;56451;44.804;20.476;2023-03-02T09:39:54;10.11;69.04
68867;SHT30;56451;44.804;20.476;2023-03-02T09:45:34;10.16;68.49
68867;SHT30;56451;44.804;20.476;2023-03-02T09:48:30;10.16;68.88
68867;SHT30;56451;44.804;20.476;2023-03-02T09:54:24;10.22;68.85
68867;SHT30;56451;44.804;20.476;2023-03-02T09:56:44;10.30;68.20
68867;SHT30;56451;44.804;20.476;2023-03-02T09:59:23;10.33;68.20
68867;SHT30;56451;44.804;20.476;2023-03-02T10:02:00;10.33;68.08
68867;SHT30;56451;44.804;20.476;2023-03-02T10:04:46;10.42;67.86
68867;SHT30;56451;44.804;20.476;2023-03-02T10:07:18;10.45;67.82
68867;SHT30;56451;44.804;20.476;2023-03-02T10:09:47;10.49;67.77
68867;SHT30;56451;44.804;20.476;2023-03-02T10:15:40;10.49;67.62
68867;SHT30;56451;44.804;20.476;2023-03-02T10:18:17;10.48;67.33
68867;SHT30;56451;44.804;20.476;2023-03-02T10:26:47;10.59;66.14
68867;SHT30;56451;44.804;20.476;2023-03-02T10:32:42;10.51;66.02
68867;SHT30;56451;44.804;20.476;2023-03-02T10:35:19;10.44;65.92
68867;SHT30;56451;44.804;20.476;2023-03-02T10:37:47;10.44;66.21
68867;SHT30;56451;44.804;20.476;2023-03-02T10:40:29;10.45;66.12
68867;SHT30;56451;44.804;20.476;2023-03-02T10:42:58;10.52;65.96
68867;SHT30;56451;44.804;20.476;2023-03-02T10:45:30;10.46;65.46
68867;SHT30;56451;44.804;20.476;2023-03-02T10:48:03;10.45;65.64
68867;SHT30;56451;44.804;20.476;2023-03-02T10:50:30;10.51;65.57
68867;SHT30;56451;44.804;20.476;2023-03-02T10:52:57;10.51;65.67
68867;SHT30;56451;44.804;20.476;2023-03-02T10:55:23;10.56;65.40
68867;SHT30;56451;44.804;20.476;2023-03-02T11:00:28;10.68;64.80
68867;SHT30;56451;44.804;20.476;2023-03-02T11:03:16;10.68;64.71
68867;SHT30;56451;44.804;20.476;2023-03-02T11:05:45;10.71;64.93
68867;SHT30;56451;44.804;20.476;2023-03-02T11:08:17;10.75;63.99
68867;SHT30;56451;44.804;20.476;2023-03-02T11:13:27;10.65;63.55
68867;SHT30;56451;44.804;20.476;2023-03-02T11:15:56;10.55;63.44
68867;SHT30;56451;44.804;20.476;2023-03-02T11:21:23;10.52;63.75
68867;SHT30;56451;44.804;20.476;2023-03-02T11:24:13;10.48;63.76
68867;SHT30;56451;44.804;20.476;2023-03-02T11:26:52;10.55;63.63
68867;SHT30;56451;44.804;20.476;2023-03-02T11:29:41;10.48;63.49
68867;SHT30;56451;44.804;20.476;2023-03-02T11:35:12;10.42;63.54
68867;SHT30;56451;44.804;20.476;2023-03-02T11:37:45;10.41;63.75
68867;SHT30;56451;44.804;20.476;2023-03-02T11:42:59;10.54;63.82
68867;SHT30;56451;44.804;20.476;2023-03-02T11:48:24;10.61;63.25
68867;SHT30;56451;44.804;20.476;2023-03-02T11:50:59;10.59;63.25
68867;SHT30;56451;44.804;20.476;2023-03-02T11:53:30;10.69;63.17
68867;SHT30;56451;44.804;20.476;2023-03-02T11:55:58;10.77;63.04
68867;SHT30;56451;44.804;20.476;2023-03-02T11:58:25;10.82;62.55
68867;SHT30;56451;44.804;20.476;2023-03-02T12:00:53;10.88;62.06
68867;SHT30;56451;44.804;20.476;2023-03-02T12:03:34;10.92;61.58
68867;SHT30;56451;44.804;20.476;2023-03-02T12:06:06;10.99;61.03
68867;SHT30;56451;44.804;20.476;2023-03-02T12:08:41;11.06;61.23
68867;SHT30;56451;44.804;20.476;2023-03-02T12:13:45;11.13;61.24
68867;SHT30;56451;44.804;20.476;2023-03-02T12:21:58;11.27;60.27
68867;SHT30;56451;44.804;20.476;2023-03-02T12:24:29;11.35;60.08
68867;SHT30;56451;44.804;20.476;2023-03-02T12:34:55;11.57;59.34
68867;SHT30;56451;44.804;20.476;2023-03-02T12:37:30;11.68;58.67
68867;SHT30;56451;44.804;20.476;2023-03-02T12:40:29;11.78;58.84
68867;SHT30;56451;44.804;20.476;2023-03-02T12:43:37;11.92;57.39
68867;SHT30;56451;44.804;20.476;2023-03-02T12:52:01;12.10;57.22
68867;SHT30;56451;44.804;20.476;2023-03-02T12:54:30;12.18;57.43
68867;SHT30;56451;44.804;20.476;2023-03-02T12:57:13;12.29;57.46
68867;SHT30;56451;44.804;20.476;2023-03-02T12:59:40;12.34;56.85
68867;SHT30;56451;44.804;20.476;2023-03-02T13:02:14;12.40;56.83
68867;SHT30;56451;44.804;20.476;2023-03-02T13:04:41;12.46;56.90
68867;SHT30;56451;44.804;20.476;2023-03-02T13:07:21;12.49;56.09
68867;SHT30;56451;44.804;20.476;2023-03-02T13:09:50;12.44;56.08
68867;SHT30;56451;44.804;20.476;2023-03-02T13:12:19;12.44;56.01
68867;SHT30;56451;44.804;20.476;2023-03-02T13:14:53;12.50;55.96
68867;SHT30;56451;44.804;20.476;2023-03-02T13:17:26;12.44;55.96
68867;SHT30;56451;44.804;20.476;2023-03-02T13:20:01;12.49;56.66
68867;SHT30;56451;44.804;20.476;2023-03-02T13:22:32;12.53;56.38
68867;SHT30;56451;44.804;20.476;2023-03-02T13:25:06;12.53;56.12
68867;SHT30;56451;44.804;20.476;2023-03-02T13:27:37;12.51;56.09
68867;SHT30;56451;44.804;20.476;2023-03-02T13:30:11;12.49;56.17
68867;SHT30;56451;44.804;20.476;2023-03-02T13:32:47;12.34;56.31
68867;SHT30;56451;44.804;20.476;2023-03-02T13:35:25;12.18;56.70
68867;SHT30;56451;44.804;20.476;2023-03-02T13:38:12;12.05;57.29
68867;SHT30;56451;44.804;20.476;2023-03-02T13:40:46;11.99;57.60
68867;SHT30;56451;44.804;20.476;2023-03-02T13:46:01;11.95;57.46
68867;SHT30;56451;44.804;20.476;2023-03-02T13:48:32;11.96;58.67
68867;SHT30;56451;44.804;20.476;2023-03-02T13:51:16;12.08;59.12
68867;SHT30;56451;44.804;20.476;2023-03-02T13:54:01;12.19;60.85
68867;SHT30;56451;44.804;20.476;2023-03-02T13:56:46;12.22;59.88
68867;SHT30;56451;44.804;20.476;2023-03-02T13:59:18;12.08;61.71
68867;SHT30;56451;44.804;20.476;2023-03-02T14:01:47;11.95;62.01
68867;SHT30;56451;44.804;20.476;2023-03-02T14:04:20;11.88;62.20
68867;SHT30;56451;44.804;20.476;2023-03-02T14:06:51;11.85;62.77
68867;SHT30;56451;44.804;20.476;2023-03-02T14:09:20;11.83;62.66
68867;SHT30;56451;44.804;20.476;2023-03-02T14:11:51;11.75;61.97
68867;SHT30;56451;44.804;20.476;2023-03-02T14:14:23;11.72;62.66
68867;SHT30;56451;44.804;20.476;2023-03-02T14:16:52;11.72;60.79
68867;SHT30;56451;44.804;20.476;2023-03-02T14:19:20;11.60;62.97
68867;SHT30;56451;44.804;20.476;2023-03-02T14:21:55;11.54;62.28
68867;SHT30;56451;44.804;20.476;2023-03-02T14:24:23;11.48;61.86
68867;SHT30;56451;44.804;20.476;2023-03-02T14:26:56;11.41;61.49
68867;SHT30;56451;44.804;20.476;2023-03-02T14:29:32;11.35;62.34
68867;SHT30;56451;44.804;20.476;2023-03-02T14:32:03;11.17;61.84
68867;SHT30;56451;44.804;20.476;2023-03-02T14:34:36;11.12;63.16
68867;SHT30;56451;44.804;20.476;2023-03-02T14:37:16;11.09;63.54
68867;SHT30;56451;44.804;20.476;2023-03-02T14:39:49;11.09;63.45
68867;SHT30;56451;44.804;20.476;2023-03-02T14:42:19;11.03;62.67
68867;SHT30;56451;44.804;20.476;2023-03-02T14:44:51;11.09;62.55
68867;SHT30;56451;44.804;20.476;2023-03-02T14:47:20;11.09;61.86
68867;SHT30;56451;44.804;20.476;2023-03-02T14:49:50;11.06;62.21
68867;SHT30;56451;44.804;20.476;2023-03-02T14:52:28;11.03;62.07
68867;SHT30;56451;44.804;20.476;2023-03-02T14:55:04;11.02;62.02
68867;SHT30;56451;44.804;20.476;2023-03-02T14:57:35;11.02;61.67
68867;SHT30;56451;44.804;20.476;2023-03-02T15:00:07;11.02;62.30
68867;SHT30;56451;44.804;20.476;2023-03-02T15:02:39;11.00;61.97
68867;SHT30;56451;44.804;20.476;2023-03-02T15:05:12;11.02;61.92
68867;SHT30;56451;44.804;20.476;2023-03-02T15:07:41;11.07;62.22
68867;SHT30;56451;44.804;20.476;2023-03-02T15:10:15;11.09;61.73
68867;SHT30;56451;44.804;20.476;2023-03-02T15:12:42;11.16;61.16
68867;SHT30;56451;44.804;20.476;2023-03-02T15:15:11;11.14;61.36
68867;SHT30;56451;44.804;20.476;2023-03-02T15:17:50;11.17;61.34
68867;SHT30;56451;44.804;20.476;2023-03-02T15:20:18;11.19;60.86
68867;SHT30;56451;44.804;20.476;2023-03-02T15:22:51;11.19;60.85
68867;SHT30;56451;44.804;20.476;2023-03-02T15:25:22;11.19;60.48
68867;SHT30;56451;44.804;20.476;2023-03-02T15:27:55;11.14;60.23
68867;SHT30;56451;44.804;20.476;2023-03-02T15:30:25;11.12;59.70
68867;SHT30;56451;44.804;20.476;2023-03-02T15:32:58;11.12;59.67
68867;SHT30;56451;44.804;20.476;2023-03-02T15:35:27;11.12;59.65
68867;SHT30;56451;44.804;20.476;2023-03-02T15:37:57;11.09;59.89
68867;SHT30;56451;44.804;20.476;2023-03-02T15:40:30;11.02;59.88
68867;SHT30;56451;44.804;20.476;2023-03-02T15:43:01;10.99;60.22
68867;SHT30;56451;44.804;20.476;2023-03-02T15:45:30;11.00;59.85
68867;SHT30;56451;44.804;20.476;2023-03-02T15:47:58;10.97;59.64
68867;SHT30;56451;44.804;20.476;2023-03-02T15:50:26;10.96;59.69
68867;SHT30;56451;44.804;20.476;2023-03-02T15:52:54;10.95;60.12
68867;SHT30;56451;44.804;20.476;2023-03-02T15:55:24;10.97;59.70
68867;SHT30;56451;44.804;20.476;2023-03-02T15:57:57;10.96;59.64
68867;SHT30;56451;44.804;20.476;2023-03-02T16:00:27;10.95;59.51
68867;SHT30;56451;44.804;20.476;2023-03-02T16:02:53;10.95;59.50
68867;SHT30;56451;44.804;20.476;2023-03-02T16:05:21;10.92;59.53
68867;SHT30;56451;44.804;20.476;2023-03-02T16:07:49;10.93;59.42
68867;SHT30;56451;44.804;20.476;2023-03-02T16:10:17;10.92;59.47
68867;SHT30;56451;44.804;20.476;2023-03-02T16:12:46;10.86;59.62
68867;SHT30;56451;44.804;20.476;2023-03-02T16:15:15;10.85;59.93
68867;SHT30;56451;44.804;20.476;2023-03-02T16:17:43;10.82;59.80
68867;SHT30;56451;44.804;20.476;2023-03-02T16:20:12;10.82;59.62
68867;SHT30;56451;44.804;20.476;2023-03-02T16:22:39;10.76;59.66
68867;SHT30;56451;44.804;20.476;2023-03-02T16:25:06;10.73;59.52
68867;SHT30;56451;44.804;20.476;2023-03-02T16:27:33;10.72;59.11
68867;SHT30;56451;44.804;20.476;2023-03-02T16:30:04;10.69;58.94
68867;SHT30;56451;44.804;20.476;2023-03-02T16:32:31;10.58;58.77
68867;SHT30;56451;44.804;20.476;2023-03-02T16:35:03;10.59;58.60
68867;SHT30;56451;44.804;20.476;2023-03-02T16:37:45;10.52;58.70
68867;SHT30;56451;44.804;20.476;2023-03-02T16:40:12;10.46;58.77
68867;SHT30;56451;44.804;20.476;2023-03-02T16:42:49;10.41;58.86
68867;SHT30;56451;44.804;20.476;2023-03-02T16:45:19;10.37;58.82
68867;SHT30;56451;44.804;20.476;2023-03-02T16:47:49;10.41;58.83
68867;SHT30;56451;44.804;20.476;2023-03-02T16:50:18;10.31;58.61
68867;SHT30;56451;44.804;20.476;2023-03-02T16:52:44;10.28;58.74
68867;SHT30;56451;44.804;20.476;2023-03-02T16:55:17;10.25;58.83
68867;SHT30;56451;44.804;20.476;2023-03-02T16:57:46;10.21;58.83
68867;SHT30;56451;44.804;20.476;2023-03-02T17:00:21;10.13;59.14